sensor_id;sensor_type;location;lat;lon;timestamp;temperature;humidity
73833;SHT30;62179;48.444;-4.464;2023-05-07T18:23:04;17.28;76.71
73833;SHT30;62179;48.444;-4.464;2023-05-07T18:25:30;17.23;76.82
73833;SHT30;62179;48.444;-4.464;2023-05-07T18:27:55;17.19;76.84
73833;SHT30;62179;48.444;-4.464;2023-05-07T18:30:21;17.16;75.86
73833;SHT30;62179;48.444;-4.464;2023-05-07T18:32:47;17.15;76.13
73833;SHT30;62179;48.444;-4.464;2023-05-07T18:35:12;17.12;76.67
73833;SHT30;62179;48.444;-4.464;2023-05-07T18:37:38;17.09;76.31
73833;SHT30;62179;48.444;-4.464;2023-05-07T18:40:04;17.04;76.72
73833;SHT30;62179;48.444;-4.464;2023-05-07T18:42:30;16.99;76.93
73833;SHT30;62179;48.444;-4.464;2023-05-07T18:44:55;16.95;77.23
73833;SHT30;62179;48.444;-4.464;2023-05-07T18:47:24;16.98;76.94
73833;SHT30;62179;48.444;-4.464;2023-05-07T18:49:51;16.96;77.40
73833;SHT30;62179;48.444;-4.464;2023-05-07T18:52:18;16.92;77.55
73833;SHT30;62179;48.444;-4.464;2023-05-07T18:54:46;16.95;77.38
73833;SHT30;62179;48.444;-4.464;2023-05-07T18:57:12;16.94;77.39
73833;SHT30;62179;48.444;-4.464;2023-05-07T18:59:37;16.85;77.34
73833;SHT30;62179;48.444;-4.464;2023-05-07T19:02:03;16.84;77.73
73833;SHT30;62179;48.444;-4.464;2023-05-07T19:04:29;16.80;77.22
73833;SHT30;62179;48.444;-4.464;2023-05-07T19:06:54;16.77;77.96
73833;SHT30;62179;48.444;-4.464;2023-05-07T19:09:20;16.72;77.42
73833;SHT30;62179;48.444;-4.464;2023-05-07T19:11:45;16.68;77.91
73833;SHT30;62179;48.444;-4.464;2023-05-07T19:14:14;16.64;77.66
73833;SHT30;62179;48.444;-4.464;2023-05-07T19:16:43;16.60;78.12
73833;SHT30;62179;48.444;-4.464;2023-05-07T19:19:09;16.57;78.17
73833;SHT30;62179;48.444;-4.464;2023-05-07T19:21:35;16.56;78.36
73833;SHT30;62179;48.444;-4.464;2023-05-07T19:24:00;16.54;78.60
73833;SHT30;62179;48.444;-4.464;2023-05-07T19:26:26;16.49;78.18
73833;SHT30;62179;48.444;-4.464;2023-05-07T19:28:57;16.46;78.61
73833;SHT30;62179;48.444;-4.464;2023-05-07T19:31:23;16.43;78.28
73833;SHT30;62179;48.444;-4.464;2023-05-07T19:33:53;16.37;78.57
73833;SHT30;62179;48.444;-4.464;2023-05-07T19:36:19;16.36;78.94
73833;SHT30;62179;48.444;-4.464;2023-05-07T19:38:48;16.29;78.85
73833;SHT30;62179;48.444;-4.464;2023-05-07T19:41:22;16.24;78.99
73833;SHT30;62179;48.444;-4.464;2023-05-07T19:43:51;16.22;79.10
73833;SHT30;62179;48.444;-4.464;2023-05-07T19:46:16;16.14;79.38
73833;SHT30;62179;48.444;-4.464;2023-05-07T19:48:43;16.10;79.52
73833;SHT30;62179;48.444;-4.464;2023-05-07T19:51:09;16.06;79.41
73833;SHT30;62179;48.444;-4.464;2023-05-07T19:53:35;16.02;79.68
73833;SHT30;62179;48.444;-4.464;2023-05-07T19:56:09;15.99;79.79
73833;SHT30;62179;48.444;-4.464;2023-05-07T19:58:35;15.96;80.02
73833;SHT30;62179;48.444;-4.464;2023-05-07T20:01:01;15.95;80.08
73833;SHT30;62179;48.444;-4.464;2023-05-07T20:03:28;15.93;80.30
73833;SHT30;62179;48.444;-4.464;2023-05-07T20:05:54;15.91;80.23
73833;SHT30;62179;48.444;-4.464;2023-05-07T20:08:20;15.89;80.42
73833;SHT30;62179;48.444;-4.464;2023-05-07T20:10:47;15.88;80.34
73833;SHT30;62179;48.444;-4.464;2023-05-07T20:13:12;15.86;80.59
73833;SHT30;62179;48.444;-4.464;2023-05-07T20:15:38;15.83;80.64
73833;SHT30;62179;48.444;-4.464;2023-05-07T20:18:04;15.82;80.70
73833;SHT30;62179;48.444;-4.464;2023-05-07T20:20:29;15.77;80.59
73833;SHT30;62179;48.444;-4.464;2023-05-07T20:22:56;15.73;80.75
73833;SHT30;62179;48.444;-4.464;2023-05-07T20:25:22;15.69;80.85
73833;SHT30;62179;48.444;-4.464;2023-05-07T20:27:51;15.69;80.89
73833;SHT30;62179;48.444;-4.464;2023-05-07T20:30:18;15.63;81.04
73833;SHT30;62179;48.444;-4.464;2023-05-07T20:32:45;15.62;81.30
73833;SHT30;62179;48.444;-4.464;2023-05-07T20:35:10;15.62;81.30
73833;SHT30;62179;48.444;-4.464;2023-05-07T20:37:37;15.62;81.44
73833;SHT30;62179;48.444;-4.464;2023-05-07T20:40:04;15.61;81.48
73833;SHT30;62179;48.444;-4.464;2023-05-07T20:42:30;15.61;81.50
73833;SHT30;62179;48.444;-4.464;2023-05-07T20:44:55;15.58;81.40
73833;SHT30;62179;48.444;-4.464;2023-05-07T20:47:21;15.59;81.73
73833;SHT30;62179;48.444;-4.464;2023-05-07T20:49:50;15.55;81.56
73833;SHT30;62179;48.444;-4.464;2023-05-07T20:52:15;15.55;81.60
73833;SHT30;62179;48.444;-4.464;2023-05-07T20:54:41;15.51;81.61
73833;SHT30;62179;48.444;-4.464;2023-05-07T20:57:08;15.52;81.73
73833;SHT30;62179;48.444;-4.464;2023-05-07T20:59:34;15.50;81.80
73833;SHT30;62179;48.444;-4.464;2023-05-07T21:02:01;15.48;81.44
73833;SHT30;62179;48.444;-4.464;2023-05-07T21:04:27;15.47;81.66
73833;SHT30;62179;48.444;-4.464;2023-05-07T21:06:54;15.47;81.69
73833;SHT30;62179;48.444;-4.464;2023-05-07T21:09:19;15.47;81.86
73833;SHT30;62179;48.444;-4.464;2023-05-07T21:11:45;15.44;81.65
73833;SHT30;62179;48.444;-4.464;2023-05-07T21:14:10;15.44;81.83
73833;SHT30;62179;48.444;-4.464;2023-05-07T21:16:36;15.47;81.49
73833;SHT30;62179;48.444;-4.464;2023-05-07T21:19:01;15.44;81.48
73833;SHT30;62179;48.444;-4.464;2023-05-07T21:21:27;15.41;81.40
73833;SHT30;62179;48.444;-4.464;2023-05-07T21:23:52;15.37;80.99
73833;SHT30;62179;48.444;-4.464;2023-05-07T21:26:18;15.33;81.12
73833;SHT30;62179;48.444;-4.464;2023-05-07T21:28:44;15.31;81.10
73833;SHT30;62179;48.444;-4.464;2023-05-07T21:31:11;15.30;80.92
73833;SHT30;62179;48.444;-4.464;2023-05-07T21:33:36;15.28;80.95
73833;SHT30;62179;48.444;-4.464;2023-05-07T21:36:02;15.23;80.88
73833;SHT30;62179;48.444;-4.464;2023-05-07T21:38:28;15.21;80.81
73833;SHT30;62179;48.444;-4.464;2023-05-07T21:40:57;15.20;80.91
73833;SHT30;62179;48.444;-4.464;2023-05-07T21:43:22;15.19;81.80
73833;SHT30;62179;48.444;-4.464;2023-05-07T21:45:48;15.16;81.41
73833;SHT30;62179;48.444;-4.464;2023-05-07T21:48:15;15.13;81.63
73833;SHT30;62179;48.444;-4.464;2023-05-07T21:50:45;15.16;81.48
73833;SHT30;62179;48.444;-4.464;2023-05-07T21:53:11;15.13;81.48
73833;SHT30;62179;48.444;-4.464;2023-05-07T21:55:36;15.08;81.60
73833;SHT30;62179;48.444;-4.464;2023-05-07T21:58:02;15.11;81.56
73833;SHT30;62179;48.444;-4.464;2023-05-07T22:00:27;15.10;81.78
73833;SHT30;62179;48.444;-4.464;2023-05-07T22:02:53;15.10;81.45
73833;SHT30;62179;48.444;-4.464;2023-05-07T22:05:19;15.08;81.89
73833;SHT30;62179;48.444;-4.464;2023-05-07T22:07:44;15.06;82.53
73833;SHT30;62179;48.444;-4.464;2023-05-07T22:10:10;15.04;82.42
73833;SHT30;62179;48.444;-4.464;2023-05-07T22:12:35;15.02;82.91
73833;SHT30;62179;48.444;-4.464;2023-05-07T22:15:01;15.04;82.72
73833;SHT30;62179;48.444;-4.464;2023-05-07T22:17:26;15.08;82.52
73833;SHT30;62179;48.444;-4.464;2023-05-07T22:19:52;15.07;83.19
73833;SHT30;62179;48.444;-4.464;2023-05-07T22:22:17;15.11;82.98
73833;SHT30;62179;48.444;-4.464;2023-05-07T22:24:44;15.14;83.19
73833;SHT30;62179;48.444;-4.464;2023-05-07T22:27:10;15.17;83.13
73833;SHT30;62179;48.444;-4.464;2023-05-07T22:29:36;15.16;83.06
73833;SHT30;62179;48.444;-4.464;2023-05-07T22:32:01;15.20;83.27
73833;SHT30;62179;48.444;-4.464;2023-05-07T22:34:27;15.19;83.52
73833;SHT30;62179;48.444;-4.464;2023-05-07T22:36:53;15.20;83.55
73833;SHT30;62179;48.444;-4.464;2023-05-07T22:39:18;15.21;83.68
73833;SHT30;62179;48.444;-4.464;2023-05-07T22:41:44;15.23;83.92
73833;SHT30;62179;48.444;-4.464;2023-05-07T22:44:09;15.26;84.08
73833;SHT30;62179;48.444;-4.464;2023-05-07T22:46:35;15.30;84.19
73833;SHT30;62179;48.444;-4.464;2023-05-07T22:49:01;15.33;84.19
73833;SHT30;62179;48.444;-4.464;2023-05-07T22:51:27;15.33;84.32
73833;SHT30;62179;48.444;-4.464;2023-05-07T22:53:52;15.35;84.24
73833;SHT30;62179;48.444;-4.464;2023-05-07T22:56:18;15.37;84.34
73833;SHT30;62179;48.444;-4.464;2023-05-07T22:58:43;15.35;84.30
73833;SHT30;62179;48.444;-4.464;2023-05-07T23:01:13;15.42;84.26
73833;SHT30;62179;48.444;-4.464;2023-05-07T23:03:39;15.44;83.95
73833;SHT30;62179;48.444;-4.464;2023-05-07T23:06:04;15.41;83.83
73833;SHT30;62179;48.444;-4.464;2023-05-07T23:08:30;15.44;83.98
73833;SHT30;62179;48.444;-4.464;2023-05-07T23:10:55;15.42;83.98
73833;SHT30;62179;48.444;-4.464;2023-05-07T23:13:21;15.44;83.90
73833;SHT30;62179;48.444;-4.464;2023-05-07T23:15:46;15.47;83.81
73833;SHT30;62179;48.444;-4.464;2023-05-07T23:18:12;15.48;83.90
73833;SHT30;62179;48.444;-4.464;2023-05-07T23:20:37;15.47;83.98
73833;SHT30;62179;48.444;-4.464;2023-05-07T23:23:05;15.48;83.99
73833;SHT30;62179;48.444;-4.464;2023-05-07T23:25:31;15.51;84.07
73833;SHT30;62179;48.444;-4.464;2023-05-07T23:27:56;15.50;84.08
73833;SHT30;62179;48.444;-4.464;2023-05-07T23:30:22;15.51;84.01
73833;SHT30;62179;48.444;-4.464;2023-05-07T23:32:47;15.54;84.07
73833;SHT30;62179;48.444;-4.464;2023-05-07T23:35:13;15.54;84.20
73833;SHT30;62179;48.444;-4.464;2023-05-07T23:37:38;15.55;84.21
73833;SHT30;62179;48.444;-4.464;2023-05-07T23:40:04;15.58;84.17
73833;SHT30;62179;48.444;-4.464;2023-05-07T23:42:30;15.58;84.49
73833;SHT30;62179;48.444;-4.464;2023-05-07T23:44:56;15.62;84.40
73833;SHT30;62179;48.444;-4.464;2023-05-07T23:47:22;15.62;84.45
73833;SHT30;62179;48.444;-4.464;2023-05-07T23:49:47;15.61;84.57
73833;SHT30;62179;48.444;-4.464;2023-05-07T23:52:13;15.61;84.46
73833;SHT30;62179;48.444;-4.464;2023-05-07T23:54:38;15.61;84.56
73833;SHT30;62179;48.444;-4.464;2023-05-07T23:57:04;15.65;84.44
73833;SHT30;62179;48.444;-4.464;2023-05-07T23:59:29;15.63;84.55
